sensor_id;sensor_type;location;lat;lon;timestamp;P1;durP1;ratioP1;P2;durP2;ratioP2
80334;SDS011;69653;52.674;13.574;2023-07-13T00:02:04;6.93;;;2.50;;
80334;SDS011;69653;52.674;13.574;2023-07-13T00:04:29;4.78;;;2.72;;
80334;SDS011;69653;52.674;13.574;2023-07-13T00:06:55;4.90;;;2.80;;
80334;SDS011;69653;52.674;13.574;2023-07-13T00:09:20;5.13;;;2.50;;
80334;SDS011;69653;52.674;13.574;2023-07-13T00:11:49;5.45;;;2.60;;
80334;SDS011;69653;52.674;13.574;2023-07-13T00:14:18;4.38;;;2.60;;
80334;SDS011;69653;52.674;13.574;2023-07-13T00:16:43;6.85;;;2.50;;
80334;SDS011;69653;52.674;13.574;2023-07-13T00:19:09;26.27;;;11.10;;
80334;SDS011;69653;52.674;13.574;2023-07-13T00:21:35;7.90;;;4.18;;
80334;SDS011;69653;52.674;13.574;2023-07-13T00:24:00;5.90;;;2.83;;
80334;SDS011;69653;52.674;13.574;2023-07-13T00:26:26;6.95;;;2.50;;
80334;SDS011;69653;52.674;13.574;2023-07-13T00:28:51;4.50;;;2.57;;
80334;SDS011;69653;52.674;13.574;2023-07-13T00:31:16;5.57;;;2.73;;
80334;SDS011;69653;52.674;13.574;2023-07-13T00:33:42;5.90;;;3.27;;
80334;SDS011;69653;52.674;13.574;2023-07-13T00:36:08;5.85;;;2.65;;
80334;SDS011;69653;52.674;13.574;2023-07-13T00:38:34;6.05;;;2.90;;
80334;SDS011;69653;52.674;13.574;2023-07-13T00:41:00;4.95;;;2.72;;
80334;SDS011;69653;52.674;13.574;2023-07-13T00:43:27;7.30;;;3.00;;
80334;SDS011;69653;52.674;13.574;2023-07-13T00:48:20;6.07;;;3.00;;
80334;SDS011;69653;52.674;13.574;2023-07-13T00:50:48;7.03;;;2.85;;
80334;SDS011;69653;52.674;13.574;2023-07-13T00:53:17;5.80;;;2.90;;
80334;SDS011;69653;52.674;13.574;2023-07-13T00:55:43;6.18;;;2.83;;
80334;SDS011;69653;52.674;13.574;2023-07-13T00:58:09;6.43;;;3.00;;
80334;SDS011;69653;52.674;13.574;2023-07-13T01:00:35;4.65;;;2.75;;
80334;SDS011;69653;52.674;13.574;2023-07-13T01:03:03;5.82;;;2.90;;
80334;SDS011;69653;52.674;13.574;2023-07-13T01:05:30;4.72;;;2.75;;
80334;SDS011;69653;52.674;13.574;2023-07-13T01:07:57;4.43;;;2.80;;
80334;SDS011;69653;52.674;13.574;2023-07-13T01:10:24;6.22;;;3.60;;
80334;SDS011;69653;52.674;13.574;2023-07-13T01:12:50;6.07;;;3.00;;
80334;SDS011;69653;52.674;13.574;2023-07-13T01:23:26;8.20;;;3.17;;
80334;SDS011;69653;52.674;13.574;2023-07-13T01:25:52;6.85;;;3.92;;
80334;SDS011;69653;52.674;13.574;2023-07-13T01:28:18;6.25;;;3.17;;
80334;SDS011;69653;52.674;13.574;2023-07-13T01:30:45;6.78;;;2.95;;
80334;SDS011;69653;52.674;13.574;2023-07-13T01:33:12;7.50;;;3.20;;
80334;SDS011;69653;52.674;13.574;2023-07-13T01:35:39;5.03;;;3.28;;
80334;SDS011;69653;52.674;13.574;2023-07-13T01:38:04;6.78;;;3.20;;
80334;SDS011;69653;52.674;13.574;2023-07-13T01:40:30;6.57;;;2.88;;
80334;SDS011;69653;52.674;13.574;2023-07-13T01:42:55;5.28;;;2.90;;
80334;SDS011;69653;52.674;13.574;2023-07-13T01:45:21;6.88;;;3.20;;
80334;SDS011;69653;52.674;13.574;2023-07-13T01:47:46;7.00;;;2.93;;
80334;SDS011;69653;52.674;13.574;2023-07-13T01:50:12;5.78;;;3.00;;
80334;SDS011;69653;52.674;13.574;2023-07-13T01:52:37;5.03;;;2.97;;
80334;SDS011;69653;52.674;13.574;2023-07-13T01:55:03;6.57;;;3.20;;
80334;SDS011;69653;52.674;13.574;2023-07-13T01:57:29;6.65;;;3.08;;
80334;SDS011;69653;52.674;13.574;2023-07-13T01:59:54;7.17;;;3.33;;
80334;SDS011;69653;52.674;13.574;2023-07-13T02:02:19;6.03;;;3.00;;
80334;SDS011;69653;52.674;13.574;2023-07-13T02:04:45;5.70;;;2.90;;
80334;SDS011;69653;52.674;13.574;2023-07-13T02:07:10;5.47;;;3.35;;
80334;SDS011;69653;52.674;13.574;2023-07-13T02:09:36;6.80;;;3.25;;
80334;SDS011;69653;52.674;13.574;2023-07-13T02:12:01;5.87;;;2.93;;
80334;SDS011;69653;52.674;13.574;2023-07-13T02:14:27;6.03;;;3.08;;
80334;SDS011;69653;52.674;13.574;2023-07-13T02:16:52;7.07;;;2.90;;
80334;SDS011;69653;52.674;13.574;2023-07-13T02:19:17;5.97;;;3.00;;
80334;SDS011;69653;52.674;13.574;2023-07-13T02:21:42;6.73;;;3.43;;
80334;SDS011;69653;52.674;13.574;2023-07-13T02:24:08;5.60;;;3.13;;
80334;SDS011;69653;52.674;13.574;2023-07-13T02:26:33;6.33;;;3.63;;
80334;SDS011;69653;52.674;13.574;2023-07-13T02:28:59;5.63;;;2.80;;
80334;SDS011;69653;52.674;13.574;2023-07-13T02:31:24;6.47;;;3.40;;
80334;SDS011;69653;52.674;13.574;2023-07-13T02:33:50;6.90;;;3.30;;
80334;SDS011;69653;52.674;13.574;2023-07-13T02:36:15;5.93;;;2.90;;
80334;SDS011;69653;52.674;13.574;2023-07-13T02:38:41;6.75;;;3.83;;
80334;SDS011;69653;52.674;13.574;2023-07-13T02:41:08;6.88;;;3.40;;
80334;SDS011;69653;52.674;13.574;2023-07-13T02:43:34;6.60;;;3.55;;
80334;SDS011;69653;52.674;13.574;2023-07-13T02:46:00;6.97;;;4.18;;
80334;SDS011;69653;52.674;13.574;2023-07-13T02:48:31;8.93;;;3.80;;
80334;SDS011;69653;52.674;13.574;2023-07-13T02:50:57;5.05;;;3.35;;
80334;SDS011;69653;52.674;13.574;2023-07-13T02:53:23;6.20;;;3.27;;
80334;SDS011;69653;52.674;13.574;2023-07-13T02:55:48;5.40;;;3.00;;
80334;SDS011;69653;52.674;13.574;2023-07-13T02:58:13;6.17;;;3.40;;
80334;SDS011;69653;52.674;13.574;2023-07-13T03:00:42;7.68;;;3.63;;
80334;SDS011;69653;52.674;13.574;2023-07-13T03:03:08;7.20;;;3.13;;
80334;SDS011;69653;52.674;13.574;2023-07-13T03:05:33;6.82;;;3.63;;
80334;SDS011;69653;52.674;13.574;2023-07-13T03:07:59;6.95;;;3.33;;
80334;SDS011;69653;52.674;13.574;2023-07-13T03:10:24;7.50;;;3.50;;
80334;SDS011;69653;52.674;13.574;2023-07-13T03:12:50;7.28;;;3.95;;
80334;SDS011;69653;52.674;13.574;2023-07-13T03:15:16;7.97;;;3.58;;
80334;SDS011;69653;52.674;13.574;2023-07-13T03:17:41;7.63;;;3.43;;
80334;SDS011;69653;52.674;13.574;2023-07-13T03:20:06;8.60;;;3.83;;
80334;SDS011;69653;52.674;13.574;2023-07-13T03:22:32;5.68;;;3.83;;
80334;SDS011;69653;52.674;13.574;2023-07-13T03:24:57;7.00;;;3.70;;
80334;SDS011;69653;52.674;13.574;2023-07-13T03:27:23;10.00;;;3.97;;
80334;SDS011;69653;52.674;13.574;2023-07-13T03:29:48;8.53;;;3.60;;
80334;SDS011;69653;52.674;13.574;2023-07-13T03:32:13;9.47;;;4.00;;
80334;SDS011;69653;52.674;13.574;2023-07-13T03:34:39;9.47;;;5.07;;
80334;SDS011;69653;52.674;13.574;2023-07-13T03:37:04;7.47;;;4.10;;
80334;SDS011;69653;52.674;13.574;2023-07-13T03:39:30;8.27;;;3.60;;
80334;SDS011;69653;52.674;13.574;2023-07-13T03:41:55;8.27;;;4.53;;
80334;SDS011;69653;52.674;13.574;2023-07-13T03:44:20;8.23;;;3.73;;
80334;SDS011;69653;52.674;13.574;2023-07-13T03:46:46;6.93;;;3.90;;
80334;SDS011;69653;52.674;13.574;2023-07-13T03:49:11;8.10;;;4.70;;
80334;SDS011;69653;52.674;13.574;2023-07-13T03:51:37;6.97;;;3.90;;
80334;SDS011;69653;52.674;13.574;2023-07-13T03:54:02;7.53;;;3.73;;
80334;SDS011;69653;52.674;13.574;2023-07-13T03:56:28;8.55;;;3.78;;
80334;SDS011;69653;52.674;13.574;2023-07-13T03:58:55;7.75;;;3.97;;
80334;SDS011;69653;52.674;13.574;2023-07-13T04:01:21;6.60;;;3.63;;
80334;SDS011;69653;52.674;13.574;2023-07-13T04:06:37;6.28;;;3.40;;
80334;SDS011;69653;52.674;13.574;2023-07-13T04:09:02;6.50;;;3.87;;
80334;SDS011;69653;52.674;13.574;2023-07-13T04:11:31;7.65;;;3.78;;
80334;SDS011;69653;52.674;13.574;2023-07-13T04:13:58;8.65;;;3.67;;
80334;SDS011;69653;52.674;13.574;2023-07-13T04:16:24;7.10;;;4.28;;
80334;SDS011;69653;52.674;13.574;2023-07-13T04:18:50;7.88;;;4.05;;
80334;SDS011;69653;52.674;13.574;2023-07-13T04:21:19;8.65;;;4.30;;
80334;SDS011;69653;52.674;13.574;2023-07-13T04:23:45;8.60;;;4.05;;
80334;SDS011;69653;52.674;13.574;2023-07-13T04:26:10;6.40;;;3.53;;
80334;SDS011;69653;52.674;13.574;2023-07-13T04:28:36;7.88;;;3.90;;
80334;SDS011;69653;52.674;13.574;2023-07-13T04:31:05;5.90;;;3.40;;
80334;SDS011;69653;52.674;13.574;2023-07-13T04:33:30;4.75;;;3.40;;
80334;SDS011;69653;52.674;13.574;2023-07-13T04:35:56;6.97;;;3.92;;
80334;SDS011;69653;52.674;13.574;2023-07-13T04:38:23;7.90;;;4.10;;
80334;SDS011;69653;52.674;13.574;2023-07-13T04:40:50;8.88;;;3.78;;
80334;SDS011;69653;52.674;13.574;2023-07-13T04:43:16;7.35;;;3.47;;
80334;SDS011;69653;52.674;13.574;2023-07-13T04:45:41;5.20;;;3.03;;
80334;SDS011;69653;52.674;13.574;2023-07-13T04:48:06;5.13;;;2.73;;
80334;SDS011;69653;52.674;13.574;2023-07-13T04:50:32;4.67;;;2.80;;
80334;SDS011;69653;52.674;13.574;2023-07-13T04:52:57;5.35;;;2.80;;
80334;SDS011;69653;52.674;13.574;2023-07-13T04:55:24;4.57;;;2.47;;
80334;SDS011;69653;52.674;13.574;2023-07-13T04:57:49;4.97;;;2.70;;
80334;SDS011;69653;52.674;13.574;2023-07-13T05:00:15;5.50;;;2.33;;
80334;SDS011;69653;52.674;13.574;2023-07-13T05:02:40;4.68;;;2.70;;
80334;SDS011;69653;52.674;13.574;2023-07-13T05:05:09;6.30;;;2.90;;
80334;SDS011;69653;52.674;13.574;2023-07-13T05:07:34;5.28;;;3.45;;
80334;SDS011;69653;52.674;13.574;2023-07-13T05:10:00;5.13;;;2.30;;
80334;SDS011;69653;52.674;13.574;2023-07-13T05:12:25;5.10;;;2.40;;
80334;SDS011;69653;52.674;13.574;2023-07-13T05:14:51;7.05;;;2.53;;
80334;SDS011;69653;52.674;13.574;2023-07-13T05:17:17;5.87;;;2.30;;
80334;SDS011;69653;52.674;13.574;2023-07-13T05:19:45;4.68;;;2.58;;
80334;SDS011;69653;52.674;13.574;2023-07-13T05:22:10;4.73;;;2.07;;
80334;SDS011;69653;52.674;13.574;2023-07-13T05:24:35;4.83;;;2.70;;
80334;SDS011;69653;52.674;13.574;2023-07-13T05:27:01;5.23;;;2.30;;
80334;SDS011;69653;52.674;13.574;2023-07-13T05:29:29;6.38;;;2.53;;
80334;SDS011;69653;52.674;13.574;2023-07-13T05:31:55;4.75;;;2.45;;
80334;SDS011;69653;52.674;13.574;2023-07-13T05:34:23;5.05;;;2.72;;
80334;SDS011;69653;52.674;13.574;2023-07-13T05:36:48;4.30;;;2.30;;
80334;SDS011;69653;52.674;13.574;2023-07-13T05:39:14;4.40;;;1.95;;
80334;SDS011;69653;52.674;13.574;2023-07-13T05:41:40;5.20;;;2.72;;
80334;SDS011;69653;52.674;13.574;2023-07-13T05:44:05;4.40;;;1.97;;
80334;SDS011;69653;52.674;13.574;2023-07-13T05:46:31;3.88;;;1.70;;
80334;SDS011;69653;52.674;13.574;2023-07-13T05:48:56;4.78;;;2.10;;
80334;SDS011;69653;52.674;13.574;2023-07-13T05:51:25;5.80;;;2.20;;
80334;SDS011;69653;52.674;13.574;2023-07-13T05:53:50;4.82;;;1.90;;
80334;SDS011;69653;52.674;13.574;2023-07-13T05:56:15;6.75;;;2.08;;
80334;SDS011;69653;52.674;13.574;2023-07-13T05:58:41;4.83;;;2.00;;
80334;SDS011;69653;52.674;13.574;2023-07-13T06:01:08;4.07;;;1.73;;
80334;SDS011;69653;52.674;13.574;2023-07-13T06:03:36;4.65;;;2.00;;
80334;SDS011;69653;52.674;13.574;2023-07-13T06:06:05;4.30;;;1.75;;
80334;SDS011;69653;52.674;13.574;2023-07-13T06:08:32;5.30;;;2.10;;
80334;SDS011;69653;52.674;13.574;2023-07-13T06:11:02;6.85;;;2.22;;
80334;SDS011;69653;52.674;13.574;2023-07-13T06:13:33;4.95;;;1.90;;
80334;SDS011;69653;52.674;13.574;2023-07-13T06:15:58;4.45;;;2.00;;
80334;SDS011;69653;52.674;13.574;2023-07-13T06:18:24;5.40;;;2.22;;
80334;SDS011;69653;52.674;13.574;2023-07-13T06:20:49;4.57;;;1.73;;
80334;SDS011;69653;52.674;13.574;2023-07-13T06:23:14;5.93;;;1.87;;
80334;SDS011;69653;52.674;13.574;2023-07-13T06:25:40;4.17;;;1.80;;
80334;SDS011;69653;52.674;13.574;2023-07-13T06:28:05;6.03;;;2.22;;
80334;SDS011;69653;52.674;13.574;2023-07-13T06:30:30;4.67;;;1.60;;
80334;SDS011;69653;52.674;13.574;2023-07-13T06:32:56;3.92;;;1.77;;
80334;SDS011;69653;52.674;13.574;2023-07-13T06:35:22;3.75;;;1.63;;
80334;SDS011;69653;52.674;13.574;2023-07-13T06:37:47;4.40;;;1.70;;
80334;SDS011;69653;52.674;13.574;2023-07-13T06:40:13;5.13;;;1.70;;
80334;SDS011;69653;52.674;13.574;2023-07-13T06:42:38;4.83;;;1.87;;
80334;SDS011;69653;52.674;13.574;2023-07-13T06:45:03;5.93;;;1.77;;
80334;SDS011;69653;52.674;13.574;2023-07-13T06:47:29;5.28;;;1.60;;
80334;SDS011;69653;52.674;13.574;2023-07-13T06:49:54;4.43;;;1.50;;
80334;SDS011;69653;52.674;13.574;2023-07-13T06:52:20;4.57;;;1.60;;
80334;SDS011;69653;52.674;13.574;2023-07-13T06:54:45;4.97;;;1.47;;
80334;SDS011;69653;52.674;13.574;2023-07-13T06:57:10;3.87;;;1.20;;
80334;SDS011;69653;52.674;13.574;2023-07-13T06:59:36;5.47;;;1.50;;
80334;SDS011;69653;52.674;13.574;2023-07-13T07:02:01;4.30;;;1.50;;
80334;SDS011;69653;52.674;13.574;2023-07-13T07:04:26;4.18;;;1.42;;
80334;SDS011;69653;52.674;13.574;2023-07-13T07:06:52;3.37;;;1.47;;
80334;SDS011;69653;52.674;13.574;2023-07-13T07:09:17;4.90;;;1.73;;
80334;SDS011;69653;52.674;13.574;2023-07-13T07:11:43;4.40;;;1.30;;
80334;SDS011;69653;52.674;13.574;2023-07-13T07:14:08;4.47;;;1.40;;
80334;SDS011;69653;52.674;13.574;2023-07-13T07:16:34;4.25;;;1.30;;
80334;SDS011;69653;52.674;13.574;2023-07-13T07:18:59;3.38;;;1.35;;
80334;SDS011;69653;52.674;13.574;2023-07-13T07:21:25;3.73;;;1.30;;
80334;SDS011;69653;52.674;13.574;2023-07-13T07:23:51;4.93;;;1.40;;
80334;SDS011;69653;52.674;13.574;2023-07-13T07:26:17;3.92;;;1.23;;
80334;SDS011;69653;52.674;13.574;2023-07-13T07:28:42;2.88;;;1.20;;
80334;SDS011;69653;52.674;13.574;2023-07-13T07:31:08;3.47;;;1.30;;
80334;SDS011;69653;52.674;13.574;2023-07-13T07:33:34;4.50;;;1.30;;
80334;SDS011;69653;52.674;13.574;2023-07-13T07:35:59;3.58;;;1.30;;
80334;SDS011;69653;52.674;13.574;2023-07-13T07:38:25;4.22;;;1.30;;
80334;SDS011;69653;52.674;13.574;2023-07-13T07:40:52;3.50;;;1.10;;
80334;SDS011;69653;52.674;13.574;2023-07-13T07:43:17;4.00;;;1.35;;
80334;SDS011;69653;52.674;13.574;2023-07-13T07:45:43;3.07;;;1.20;;
80334;SDS011;69653;52.674;13.574;2023-07-13T07:48:10;4.10;;;1.20;;
80334;SDS011;69653;52.674;13.574;2023-07-13T07:50:35;3.97;;;1.00;;
80334;SDS011;69653;52.674;13.574;2023-07-13T07:53:02;2.83;;;0.88;;
80334;SDS011;69653;52.674;13.574;2023-07-13T07:55:28;3.47;;;1.17;;
80334;SDS011;69653;52.674;13.574;2023-07-13T07:57:54;3.42;;;1.10;;
80334;SDS011;69653;52.674;13.574;2023-07-13T08:00:22;4.43;;;1.15;;
80334;SDS011;69653;52.674;13.574;2023-07-13T08:02:47;5.32;;;1.30;;
80334;SDS011;69653;52.674;13.574;2023-07-13T08:05:13;6.15;;;2.22;;
80334;SDS011;69653;52.674;13.574;2023-07-13T08:07:38;6.57;;;2.17;;
80334;SDS011;69653;52.674;13.574;2023-07-13T08:10:07;8.70;;;3.38;;
80334;SDS011;69653;52.674;13.574;2023-07-13T08:12:34;8.07;;;3.20;;
80334;SDS011;69653;52.674;13.574;2023-07-13T08:15:03;2.85;;;1.20;;
80334;SDS011;69653;52.674;13.574;2023-07-13T08:17:29;5.28;;;1.30;;
80334;SDS011;69653;52.674;13.574;2023-07-13T08:19:54;7.67;;;2.03;;
80334;SDS011;69653;52.674;13.574;2023-07-13T08:22:19;5.88;;;1.00;;
80334;SDS011;69653;52.674;13.574;2023-07-13T08:24:45;4.60;;;1.00;;
80334;SDS011;69653;52.674;13.574;2023-07-13T08:27:12;3.17;;;0.90;;
80334;SDS011;69653;52.674;13.574;2023-07-13T08:29:37;3.15;;;0.90;;
80334;SDS011;69653;52.674;13.574;2023-07-13T08:32:04;2.60;;;0.80;;
80334;SDS011;69653;52.674;13.574;2023-07-13T08:34:30;2.90;;;0.93;;
80334;SDS011;69653;52.674;13.574;2023-07-13T08:36:56;2.70;;;0.77;;
80334;SDS011;69653;52.674;13.574;2023-07-13T08:39:21;3.20;;;0.90;;
80334;SDS011;69653;52.674;13.574;2023-07-13T08:41:47;2.87;;;1.00;;
80334;SDS011;69653;52.674;13.574;2023-07-13T08:44:22;2.97;;;0.90;;
80334;SDS011;69653;52.674;13.574;2023-07-13T08:46:55;2.40;;;0.85;;
80334;SDS011;69653;52.674;13.574;2023-07-13T08:49:23;3.22;;;1.13;;
80334;SDS011;69653;52.674;13.574;2023-07-13T08:51:59;4.15;;;1.65;;
80334;SDS011;69653;52.674;13.574;2023-07-13T08:54:36;3.40;;;1.30;;
80334;SDS011;69653;52.674;13.574;2023-07-13T08:57:19;4.10;;;1.20;;
80334;SDS011;69653;52.674;13.574;2023-07-13T08:59:49;3.88;;;1.10;;
80334;SDS011;69653;52.674;13.574;2023-07-13T09:05:04;2.75;;;0.85;;
80334;SDS011;69653;52.674;13.574;2023-07-13T09:10:52;2.45;;;0.90;;
80334;SDS011;69653;52.674;13.574;2023-07-13T09:13:31;2.97;;;0.82;;
80334;SDS011;69653;52.674;13.574;2023-07-13T09:16:17;3.92;;;1.25;;
80334;SDS011;69653;52.674;13.574;2023-07-13T09:18:53;3.78;;;1.48;;
80334;SDS011;69653;52.674;13.574;2023-07-13T09:23:56;3.22;;;0.90;;
80334;SDS011;69653;52.674;13.574;2023-07-13T09:26:26;3.17;;;0.88;;
80334;SDS011;69653;52.674;13.574;2023-07-13T09:28:57;4.05;;;0.93;;
80334;SDS011;69653;52.674;13.574;2023-07-13T09:31:31;4.60;;;1.15;;
80334;SDS011;69653;52.674;13.574;2023-07-13T09:33:59;3.33;;;1.13;;
80334;SDS011;69653;52.674;13.574;2023-07-13T09:36:29;3.58;;;1.23;;
80334;SDS011;69653;52.674;13.574;2023-07-13T09:41:39;4.18;;;1.00;;
80334;SDS011;69653;52.674;13.574;2023-07-13T09:44:13;4.53;;;1.30;;
80334;SDS011;69653;52.674;13.574;2023-07-13T09:46:45;2.35;;;0.82;;
80334;SDS011;69653;52.674;13.574;2023-07-13T09:49:17;5.00;;;1.00;;
80334;SDS011;69653;52.674;13.574;2023-07-13T09:51:42;3.63;;;1.20;;
80334;SDS011;69653;52.674;13.574;2023-07-13T09:54:27;4.10;;;1.10;;
80334;SDS011;69653;52.674;13.574;2023-07-13T09:56:56;3.25;;;1.00;;
80334;SDS011;69653;52.674;13.574;2023-07-13T09:59:23;3.25;;;1.30;;
80334;SDS011;69653;52.674;13.574;2023-07-13T10:01:58;4.38;;;1.08;;
80334;SDS011;69653;52.674;13.574;2023-07-13T10:04:31;4.30;;;1.17;;
80334;SDS011;69653;52.674;13.574;2023-07-13T10:07:05;4.18;;;1.17;;
80334;SDS011;69653;52.674;13.574;2023-07-13T10:09:32;3.95;;;1.33;;
80334;SDS011;69653;52.674;13.574;2023-07-13T10:11:57;4.00;;;1.25;;
80334;SDS011;69653;52.674;13.574;2023-07-13T10:14:23;3.85;;;1.40;;
80334;SDS011;69653;52.674;13.574;2023-07-13T10:16:51;4.15;;;1.40;;
80334;SDS011;69653;52.674;13.574;2023-07-13T10:19:29;5.30;;;1.48;;
80334;SDS011;69653;52.674;13.574;2023-07-13T10:22:44;3.97;;;1.20;;
80334;SDS011;69653;52.674;13.574;2023-07-13T10:24:49;2.90;;;1.30;;
80334;SDS011;69653;52.674;13.574;2023-07-13T10:27:17;5.15;;;1.20;;
80334;SDS011;69653;52.674;13.574;2023-07-13T10:30:15;4.05;;;1.40;;
80334;SDS011;69653;52.674;13.574;2023-07-13T10:32:42;2.90;;;1.10;;
80334;SDS011;69653;52.674;13.574;2023-07-13T10:35:09;3.75;;;1.10;;
80334;SDS011;69653;52.674;13.574;2023-07-13T10:40:40;3.60;;;1.55;;
80334;SDS011;69653;52.674;13.574;2023-07-13T10:43:18;5.07;;;1.63;;
80334;SDS011;69653;52.674;13.574;2023-07-13T10:45:48;3.72;;;1.30;;
80334;SDS011;69653;52.674;13.574;2023-07-13T10:48:15;4.53;;;1.50;;
80334;SDS011;69653;52.674;13.574;2023-07-13T10:50:42;4.78;;;1.50;;
80334;SDS011;69653;52.674;13.574;2023-07-13T10:53:20;5.60;;;1.80;;
80334;SDS011;69653;52.674;13.574;2023-07-13T10:59:01;5.32;;;1.77;;
80334;SDS011;69653;52.674;13.574;2023-07-13T11:01:13;4.20;;;1.70;;
80334;SDS011;69653;52.674;13.574;2023-07-13T11:18:40;9.00;;;1.93;;
80334;SDS011;69653;52.674;13.574;2023-07-13T11:23:43;3.90;;;1.30;;
80334;SDS011;69653;52.674;13.574;2023-07-13T11:31:57;5.78;;;1.70;;
80334;SDS011;69653;52.674;13.574;2023-07-13T11:34:27;4.07;;;1.58;;
80334;SDS011;69653;52.674;13.574;2023-07-13T11:41:58;3.63;;;1.40;;
80334;SDS011;69653;52.674;13.574;2023-07-13T11:44:27;4.07;;;1.70;;
80334;SDS011;69653;52.674;13.574;2023-07-13T11:46:55;6.32;;;1.80;;
80334;SDS011;69653;52.674;13.574;2023-07-13T11:49:23;4.00;;;1.52;;
80334;SDS011;69653;52.674;13.574;2023-07-13T11:51:49;3.75;;;1.50;;
80334;SDS011;69653;52.674;13.574;2023-07-13T11:54:32;4.72;;;1.80;;
80334;SDS011;69653;52.674;13.574;2023-07-13T11:57:42;5.55;;;1.50;;
80334;SDS011;69653;52.674;13.574;2023-07-13T11:59:50;3.22;;;1.52;;
80334;SDS011;69653;52.674;13.574;2023-07-13T12:02:29;5.15;;;1.65;;
80334;SDS011;69653;52.674;13.574;2023-07-13T12:04:57;6.70;;;1.85;;
80334;SDS011;69653;52.674;13.574;2023-07-13T12:07:27;4.30;;;1.65;;
80334;SDS011;69653;52.674;13.574;2023-07-13T12:10:00;5.93;;;1.92;;
80334;SDS011;69653;52.674;13.574;2023-07-13T12:12:28;7.63;;;4.00;;
80334;SDS011;69653;52.674;13.574;2023-07-13T12:14:54;6.00;;;2.53;;
80334;SDS011;69653;52.674;13.574;2023-07-13T12:17:20;6.47;;;3.60;;
80334;SDS011;69653;52.674;13.574;2023-07-13T12:19:48;4.03;;;1.80;;
80334;SDS011;69653;52.674;13.574;2023-07-13T12:22:16;3.97;;;1.55;;
80334;SDS011;69653;52.674;13.574;2023-07-13T12:24:43;5.78;;;1.50;;
80334;SDS011;69653;52.674;13.574;2023-07-13T12:27:19;4.82;;;1.70;;
80334;SDS011;69653;52.674;13.574;2023-07-13T12:29:51;5.10;;;1.50;;
80334;SDS011;69653;52.674;13.574;2023-07-13T12:32:21;4.07;;;1.73;;
80334;SDS011;69653;52.674;13.574;2023-07-13T12:34:54;4.07;;;1.50;;
80334;SDS011;69653;52.674;13.574;2023-07-13T12:37:21;5.75;;;1.63;;
80334;SDS011;69653;52.674;13.574;2023-07-13T12:39:47;5.30;;;1.80;;
80334;SDS011;69653;52.674;13.574;2023-07-13T12:42:19;4.70;;;1.58;;
80334;SDS011;69653;52.674;13.574;2023-07-13T12:44:50;5.03;;;1.75;;
80334;SDS011;69653;52.674;13.574;2023-07-13T12:47:19;4.45;;;1.70;;
80334;SDS011;69653;52.674;13.574;2023-07-13T12:49:49;6.03;;;1.80;;
80334;SDS011;69653;52.674;13.574;2023-07-13T12:52:22;5.47;;;1.85;;
80334;SDS011;69653;52.674;13.574;2023-07-13T12:55:06;6.82;;;1.67;;
80334;SDS011;69653;52.674;13.574;2023-07-13T12:57:49;5.53;;;1.67;;
80334;SDS011;69653;52.674;13.574;2023-07-13T13:00:22;7.60;;;2.00;;
80334;SDS011;69653;52.674;13.574;2023-07-13T13:02:50;3.90;;;1.52;;
80334;SDS011;69653;52.674;13.574;2023-07-13T13:05:17;4.28;;;1.60;;
80334;SDS011;69653;52.674;13.574;2023-07-13T13:07:43;4.40;;;1.65;;
80334;SDS011;69653;52.674;13.574;2023-07-13T13:10:11;3.28;;;1.60;;
80334;SDS011;69653;52.674;13.574;2023-07-13T13:12:38;3.75;;;1.70;;
80334;SDS011;69653;52.674;13.574;2023-07-13T13:15:04;5.18;;;1.60;;
80334;SDS011;69653;52.674;13.574;2023-07-13T13:17:31;5.32;;;1.70;;
80334;SDS011;69653;52.674;13.574;2023-07-13T13:19:57;6.55;;;1.52;;
80334;SDS011;69653;52.674;13.574;2023-07-13T13:22:23;4.95;;;1.77;;
80334;SDS011;69653;52.674;13.574;2023-07-13T13:24:48;4.60;;;1.73;;
80334;SDS011;69653;52.674;13.574;2023-07-13T13:27:18;4.55;;;2.00;;
80334;SDS011;69653;52.674;13.574;2023-07-13T13:29:46;5.10;;;1.50;;
80334;SDS011;69653;52.674;13.574;2023-07-13T13:32:12;6.70;;;1.60;;
80334;SDS011;69653;52.674;13.574;2023-07-13T13:34:39;4.05;;;1.55;;
80334;SDS011;69653;52.674;13.574;2023-07-13T13:37:09;6.07;;;1.52;;
80334;SDS011;69653;52.674;13.574;2023-07-13T13:39:43;4.88;;;1.65;;
80334;SDS011;69653;52.674;13.574;2023-07-13T13:42:09;3.90;;;1.65;;
80334;SDS011;69653;52.674;13.574;2023-07-13T13:44:35;7.43;;;2.03;;
80334;SDS011;69653;52.674;13.574;2023-07-13T13:47:00;4.53;;;1.67;;
80334;SDS011;69653;52.674;13.574;2023-07-13T13:49:27;4.38;;;1.83;;
80334;SDS011;69653;52.674;13.574;2023-07-13T13:51:53;5.78;;;1.90;;
80334;SDS011;69653;52.674;13.574;2023-07-13T13:54:20;4.90;;;1.55;;
80334;SDS011;69653;52.674;13.574;2023-07-13T13:56:47;4.07;;;1.30;;
80334;SDS011;69653;52.674;13.574;2023-07-13T13:59:15;5.43;;;1.77;;
80334;SDS011;69653;52.674;13.574;2023-07-13T14:01:41;5.30;;;1.60;;
80334;SDS011;69653;52.674;13.574;2023-07-13T14:04:13;4.18;;;1.70;;
80334;SDS011;69653;52.674;13.574;2023-07-13T14:06:41;5.32;;;1.90;;
80334;SDS011;69653;52.674;13.574;2023-07-13T14:09:10;5.72;;;1.77;;
80334;SDS011;69653;52.674;13.574;2023-07-13T14:11:37;6.88;;;1.90;;
80334;SDS011;69653;52.674;13.574;2023-07-13T14:14:04;3.50;;;1.70;;
80334;SDS011;69653;52.674;13.574;2023-07-13T14:16:30;4.80;;;1.30;;
80334;SDS011;69653;52.674;13.574;2023-07-13T14:18:58;6.03;;;1.77;;
80334;SDS011;69653;52.674;13.574;2023-07-13T14:21:25;3.75;;;1.40;;
80334;SDS011;69653;52.674;13.574;2023-07-13T14:23:52;6.60;;;2.30;;
80334;SDS011;69653;52.674;13.574;2023-07-13T14:26:21;5.20;;;2.58;;
80334;SDS011;69653;52.674;13.574;2023-07-13T14:28:50;5.10;;;1.80;;
80334;SDS011;69653;52.674;13.574;2023-07-13T14:31:17;7.00;;;3.03;;
80334;SDS011;69653;52.674;13.574;2023-07-13T14:33:44;7.65;;;2.92;;
80334;SDS011;69653;52.674;13.574;2023-07-13T14:38:59;4.18;;;1.42;;
80334;SDS011;69653;52.674;13.574;2023-07-13T14:41:26;6.60;;;1.48;;
80334;SDS011;69653;52.674;13.574;2023-07-13T14:43:52;5.20;;;1.70;;
80334;SDS011;69653;52.674;13.574;2023-07-13T14:46:29;4.47;;;1.25;;
80334;SDS011;69653;52.674;13.574;2023-07-13T14:49:13;4.18;;;1.60;;
80334;SDS011;69653;52.674;13.574;2023-07-13T14:51:47;4.15;;;1.60;;
80334;SDS011;69653;52.674;13.574;2023-07-13T14:54:12;2.77;;;1.03;;
80334;SDS011;69653;52.674;13.574;2023-07-13T14:56:37;4.60;;;1.47;;
80334;SDS011;69653;52.674;13.574;2023-07-13T14:59:03;5.90;;;1.63;;
80334;SDS011;69653;52.674;13.574;2023-07-13T15:01:29;6.43;;;1.50;;
80334;SDS011;69653;52.674;13.574;2023-07-13T15:03:55;4.05;;;1.63;;
80334;SDS011;69653;52.674;13.574;2023-07-13T15:06:22;4.45;;;1.73;;
80334;SDS011;69653;52.674;13.574;2023-07-13T15:08:47;4.07;;;1.53;;
80334;SDS011;69653;52.674;13.574;2023-07-13T15:11:13;4.45;;;1.20;;
80334;SDS011;69653;52.674;13.574;2023-07-13T15:13:39;8.60;;;1.58;;
80334;SDS011;69653;52.674;13.574;2023-07-13T15:16:10;9.38;;;1.63;;
80334;SDS011;69653;52.674;13.574;2023-07-13T15:18:40;3.47;;;1.17;;
80334;SDS011;69653;52.674;13.574;2023-07-13T15:21:08;4.32;;;1.13;;
80334;SDS011;69653;52.674;13.574;2023-07-13T15:23:38;3.38;;;1.10;;
80334;SDS011;69653;52.674;13.574;2023-07-13T15:26:04;3.70;;;1.20;;
80334;SDS011;69653;52.674;13.574;2023-07-13T15:28:29;4.00;;;1.30;;
80334;SDS011;69653;52.674;13.574;2023-07-13T15:30:54;3.70;;;1.00;;
80334;SDS011;69653;52.674;13.574;2023-07-13T15:33:21;3.95;;;1.13;;
80334;SDS011;69653;52.674;13.574;2023-07-13T15:35:50;3.92;;;1.00;;
80334;SDS011;69653;52.674;13.574;2023-07-13T15:38:21;5.05;;;1.55;;